sensor_id;sensor_type;location;lat;lon;timestamp;pressure;altitude;pressure_sealevel;temperature;humidity
45255;BME280;30989;52.078;21.014;2024-03-25T00:00:42;164470.88;;;2.75;100.00
45255;BME280;30989;52.078;21.014;2024-03-25T00:03:07;164465.56;;;2.73;100.00
45255;BME280;30989;52.078;21.014;2024-03-25T00:05:33;164462.91;;;2.72;100.00
45255;BME280;30989;52.078;21.014;2024-03-25T00:07:58;164441.56;;;2.64;100.00
45255;BME280;30989;52.078;21.014;2024-03-25T00:10:24;164441.56;;;2.64;100.00
45255;BME280;30989;52.078;21.014;2024-03-25T00:12:49;164414.94;;;2.54;100.00
45255;BME280;30989;52.078;21.014;2024-03-25T00:15:20;164402.94;;;2.49;100.00
45255;BME280;30989;52.078;21.014;2024-03-25T00:17:50;164382.97;;;2.42;100.00
45255;BME280;30989;52.078;21.014;2024-03-25T00:20:16;164373.66;;;2.38;100.00
45255;BME280;30989;52.078;21.014;2024-03-25T00:22:41;164359.00;;;2.33;100.00
45255;BME280;30989;52.078;21.014;2024-03-25T00:25:07;164359.00;;;2.33;100.00
45255;BME280;30989;52.078;21.014;2024-03-25T00:27:34;164329.69;;;2.21;100.00
45255;BME280;30989;52.078;21.014;2024-03-25T00:29:59;164343.00;;;2.26;100.00
45255;BME280;30989;52.078;21.014;2024-03-25T00:32:25;164340.34;;;2.25;100.00
45255;BME280;30989;52.078;21.014;2024-03-25T00:34:50;164344.34;;;2.27;100.00
45255;BME280;30989;52.078;21.014;2024-03-25T00:37:15;164352.34;;;2.30;100.00
45255;BME280;30989;52.078;21.014;2024-03-25T00:39:41;164355.00;;;2.31;100.00
45255;BME280;30989;52.078;21.014;2024-03-25T00:42:06;164351.00;;;2.30;100.00
45255;BME280;30989;52.078;21.014;2024-03-25T00:44:32;164360.31;;;2.33;100.00
45255;BME280;30989;52.078;21.014;2024-03-25T00:46:57;164340.34;;;2.25;100.00
45255;BME280;30989;52.078;21.014;2024-03-25T00:49:48;164364.31;;;2.35;100.00
45255;BME280;30989;52.078;21.014;2024-03-25T00:52:16;164357.66;;;2.32;100.00
45255;BME280;30989;52.078;21.014;2024-03-25T00:54:42;164364.31;;;2.35;100.00
45255;BME280;30989;52.078;21.014;2024-03-25T00:57:07;164364.31;;;2.35;100.00
45255;BME280;30989;52.078;21.014;2024-03-25T00:59:33;164361.66;;;2.34;100.00
45255;BME280;30989;52.078;21.014;2024-03-25T01:01:58;164355.00;;;2.31;100.00
45255;BME280;30989;52.078;21.014;2024-03-25T01:04:24;164353.66;;;2.31;100.00
45255;BME280;30989;52.078;21.014;2024-03-25T01:06:49;164352.34;;;2.30;100.00
45255;BME280;30989;52.078;21.014;2024-03-25T01:09:14;164357.66;;;2.32;100.00
45255;BME280;30989;52.078;21.014;2024-03-25T01:11:41;164353.66;;;2.31;100.00
45255;BME280;30989;52.078;21.014;2024-03-25T01:14:06;164357.66;;;2.32;100.00
45255;BME280;30989;52.078;21.014;2024-03-25T01:16:32;164355.00;;;2.31;100.00
45255;BME280;30989;52.078;21.014;2024-03-25T01:18:58;164356.31;;;2.32;100.00
45255;BME280;30989;52.078;21.014;2024-03-25T01:21:24;164348.34;;;2.29;100.00
45255;BME280;30989;52.078;21.014;2024-03-25T01:23:50;164353.66;;;2.31;100.00
45255;BME280;30989;52.078;21.014;2024-03-25T01:26:15;164361.66;;;2.34;100.00
45255;BME280;30989;52.078;21.014;2024-03-25T01:28:42;164352.34;;;2.30;100.00
45255;BME280;30989;52.078;21.014;2024-03-25T01:31:07;164359.00;;;2.33;100.00
45255;BME280;30989;52.078;21.014;2024-03-25T01:33:33;164355.00;;;2.31;100.00
45255;BME280;30989;52.078;21.014;2024-03-25T01:35:58;164352.34;;;2.30;100.00
45255;BME280;30989;52.078;21.014;2024-03-25T01:38:23;164359.00;;;2.33;100.00
45255;BME280;30989;52.078;21.014;2024-03-25T01:40:49;164356.31;;;2.32;100.00
45255;BME280;30989;52.078;21.014;2024-03-25T01:43:14;164357.66;;;2.32;100.00
45255;BME280;30989;52.078;21.014;2024-03-25T01:45:41;164357.66;;;2.32;100.00
45255;BME280;30989;52.078;21.014;2024-03-25T01:48:08;164360.31;;;2.33;100.00
45255;BME280;30989;52.078;21.014;2024-03-25T01:50:37;164356.31;;;2.32;100.00
45255;BME280;30989;52.078;21.014;2024-03-25T01:53:04;164353.66;;;2.31;100.00
45255;BME280;30989;52.078;21.014;2024-03-25T01:55:32;164361.66;;;2.34;100.00
45255;BME280;30989;52.078;21.014;2024-03-25T01:58:00;164365.66;;;2.35;100.00
45255;BME280;30989;52.078;21.014;2024-03-25T02:00:26;164366.97;;;2.36;100.00
45255;BME280;30989;52.078;21.014;2024-03-25T02:02:52;164359.00;;;2.33;100.00
45255;BME280;30989;52.078;21.014;2024-03-25T02:05:19;164365.66;;;2.35;100.00
45255;BME280;30989;52.078;21.014;2024-03-25T02:07:45;164361.66;;;2.34;100.00
45255;BME280;30989;52.078;21.014;2024-03-25T02:10:11;164357.66;;;2.32;100.00
45255;BME280;30989;52.078;21.014;2024-03-25T02:12:43;164351.00;;;2.30;100.00
45255;BME280;30989;52.078;21.014;2024-03-25T02:15:10;164343.00;;;2.26;100.00
45255;BME280;30989;52.078;21.014;2024-03-25T02:17:36;164331.03;;;2.22;100.00
45255;BME280;30989;52.078;21.014;2024-03-25T02:20:03;164335.00;;;2.23;100.00
45255;BME280;30989;52.078;21.014;2024-03-25T02:22:30;164333.69;;;2.23;100.00
45255;BME280;30989;52.078;21.014;2024-03-25T02:24:57;164308.38;;;2.13;100.00
45255;BME280;30989;52.078;21.014;2024-03-25T02:27:24;164316.38;;;2.16;100.00
45255;BME280;30989;52.078;21.014;2024-03-25T02:29:50;164311.06;;;2.14;100.00
45255;BME280;30989;52.078;21.014;2024-03-25T02:32:15;164305.72;;;2.12;100.00
45255;BME280;30989;52.078;21.014;2024-03-25T02:34:44;164293.72;;;2.08;100.00
45255;BME280;30989;52.078;21.014;2024-03-25T02:37:10;164297.72;;;2.09;100.00
45255;BME280;30989;52.078;21.014;2024-03-25T02:39:36;164289.75;;;2.06;100.00
45255;BME280;30989;52.078;21.014;2024-03-25T02:42:02;164289.75;;;2.06;100.00
45255;BME280;30989;52.078;21.014;2024-03-25T02:44:28;164284.41;;;2.04;100.00
45255;BME280;30989;52.078;21.014;2024-03-25T02:46:53;164284.41;;;2.04;100.00
45255;BME280;30989;52.078;21.014;2024-03-25T02:49:19;164293.72;;;2.08;100.00
45255;BME280;30989;52.078;21.014;2024-03-25T02:51:45;164292.41;;;2.07;100.00
45255;BME280;30989;52.078;21.014;2024-03-25T02:54:11;164285.75;;;2.05;100.00
45255;BME280;30989;52.078;21.014;2024-03-25T02:56:37;164297.72;;;2.09;100.00
45255;BME280;30989;52.078;21.014;2024-03-25T02:59:02;164284.41;;;2.04;100.00
45255;BME280;30989;52.078;21.014;2024-03-25T03:01:28;164291.06;;;2.07;100.00
45255;BME280;30989;52.078;21.014;2024-03-25T03:03:53;164300.38;;;2.10;100.00
45255;BME280;30989;52.078;21.014;2024-03-25T03:06:19;164311.06;;;2.14;100.00
45255;BME280;30989;52.078;21.014;2024-03-25T03:08:44;164311.06;;;2.14;100.00
45255;BME280;30989;52.078;21.014;2024-03-25T03:11:10;164305.72;;;2.12;100.00
45255;BME280;30989;52.078;21.014;2024-03-25T03:13:35;164316.38;;;2.16;100.00
45255;BME280;30989;52.078;21.014;2024-03-25T03:16:01;164304.38;;;2.12;100.00
45255;BME280;30989;52.078;21.014;2024-03-25T03:18:27;164317.72;;;2.17;100.00
45255;BME280;30989;52.078;21.014;2024-03-25T03:20:52;164321.69;;;2.18;100.00
45255;BME280;30989;52.078;21.014;2024-03-25T03:23:21;164315.03;;;2.16;100.00
45255;BME280;30989;52.078;21.014;2024-03-25T03:25:46;164305.72;;;2.12;100.00
45255;BME280;30989;52.078;21.014;2024-03-25T03:28:11;164305.72;;;2.12;100.00
45255;BME280;30989;52.078;21.014;2024-03-25T03:30:37;164308.38;;;2.13;100.00
45255;BME280;30989;52.078;21.014;2024-03-25T03:33:03;164293.72;;;2.08;100.00
45255;BME280;30989;52.078;21.014;2024-03-25T03:35:28;164284.41;;;2.04;100.00
45255;BME280;30989;52.078;21.014;2024-03-25T03:37:53;164288.41;;;2.06;100.00
45255;BME280;30989;52.078;21.014;2024-03-25T03:40:19;164276.41;;;2.01;100.00
45255;BME280;30989;52.078;21.014;2024-03-25T03:42:44;164281.75;;;2.03;100.00
45255;BME280;30989;52.078;21.014;2024-03-25T03:45:10;164268.44;;;1.98;100.00
45255;BME280;30989;52.078;21.014;2024-03-25T03:47:35;164264.44;;;1.97;100.00
45255;BME280;30989;52.078;21.014;2024-03-25T03:50:01;164263.09;;;1.96;100.00
45255;BME280;30989;52.078;21.014;2024-03-25T03:52:26;164268.44;;;1.98;100.00
45255;BME280;30989;52.078;21.014;2024-03-25T03:54:52;164239.13;;;1.87;100.00
45255;BME280;30989;52.078;21.014;2024-03-25T03:57:17;164264.44;;;1.97;100.00
45255;BME280;30989;52.078;21.014;2024-03-25T03:59:43;164265.78;;;1.97;100.00
45255;BME280;30989;52.078;21.014;2024-03-25T04:02:09;164261.78;;;1.96;100.00
45255;BME280;30989;52.078;21.014;2024-03-25T04:04:34;164260.44;;;1.95;100.00
45255;BME280;30989;52.078;21.014;2024-03-25T04:07:01;164256.44;;;1.93;100.00
45255;BME280;30989;52.078;21.014;2024-03-25T04:09:27;164268.44;;;1.98;100.00
45255;BME280;30989;52.078;21.014;2024-03-25T04:11:54;164265.78;;;1.97;100.00
45255;BME280;30989;52.078;21.014;2024-03-25T04:14:20;164260.44;;;1.95;100.00
45255;BME280;30989;52.078;21.014;2024-03-25T04:16:45;164265.78;;;1.97;100.00
45255;BME280;30989;52.078;21.014;2024-03-25T04:19:12;164268.44;;;1.98;100.00
45255;BME280;30989;52.078;21.014;2024-03-25T04:21:38;164257.78;;;1.94;100.00
45255;BME280;30989;52.078;21.014;2024-03-25T04:24:05;164263.09;;;1.96;100.00
45255;BME280;30989;52.078;21.014;2024-03-25T04:26:31;164272.44;;;2.00;100.00
45255;BME280;30989;52.078;21.014;2024-03-25T04:28:56;164265.78;;;1.97;100.00
45255;BME280;30989;52.078;21.014;2024-03-25T04:31:22;164273.75;;;2.00;100.00
45255;BME280;30989;52.078;21.014;2024-03-25T04:33:48;164277.75;;;2.02;100.00
45255;BME280;30989;52.078;21.014;2024-03-25T04:36:13;164283.09;;;2.04;100.00
45255;BME280;30989;52.078;21.014;2024-03-25T04:38:39;164287.06;;;2.05;100.00
45255;BME280;30989;52.078;21.014;2024-03-25T04:41:04;164291.06;;;2.07;100.00
45255;BME280;30989;52.078;21.014;2024-03-25T04:43:30;164296.41;;;2.09;100.00
45255;BME280;30989;52.078;21.014;2024-03-25T04:45:55;164301.72;;;2.11;100.00
45255;BME280;30989;52.078;21.014;2024-03-25T04:48:20;164305.72;;;2.12;100.00
45255;BME280;30989;52.078;21.014;2024-03-25T04:50:46;164316.38;;;2.16;100.00
45255;BME280;30989;52.078;21.014;2024-03-25T04:53:13;164315.03;;;2.16;100.00
45255;BME280;30989;52.078;21.014;2024-03-25T04:55:38;164327.03;;;2.20;100.00
45255;BME280;30989;52.078;21.014;2024-03-25T04:58:03;164329.69;;;2.21;100.00
45255;BME280;30989;52.078;21.014;2024-03-25T05:00:32;164324.38;;;2.19;100.00
45255;BME280;30989;52.078;21.014;2024-03-25T05:02:57;164336.34;;;2.24;100.00
45255;BME280;30989;52.078;21.014;2024-03-25T05:05:23;164345.69;;;2.28;100.00
45255;BME280;30989;52.078;21.014;2024-03-25T05:07:49;164343.00;;;2.26;100.00
45255;BME280;30989;52.078;21.014;2024-03-25T05:10:15;164353.66;;;2.31;100.00
45255;BME280;30989;52.078;21.014;2024-03-25T05:12:40;164364.31;;;2.35;100.00
45255;BME280;30989;52.078;21.014;2024-03-25T05:15:05;164365.66;;;2.35;100.00
45255;BME280;30989;52.078;21.014;2024-03-25T05:17:31;164356.31;;;2.32;100.00
45255;BME280;30989;52.078;21.014;2024-03-25T05:19:56;164364.31;;;2.35;100.00
45255;BME280;30989;52.078;21.014;2024-03-25T05:22:22;164353.66;;;2.31;100.00
45255;BME280;30989;52.078;21.014;2024-03-25T05:24:47;164360.31;;;2.33;100.00
45255;BME280;30989;52.078;21.014;2024-03-25T05:27:14;164348.34;;;2.29;100.00
45255;BME280;30989;52.078;21.014;2024-03-25T05:29:40;164360.31;;;2.33;100.00
45255;BME280;30989;52.078;21.014;2024-03-25T05:32:06;164333.69;;;2.23;100.00
45255;BME280;30989;52.078;21.014;2024-03-25T05:34:34;164365.66;;;2.35;100.00
45255;BME280;30989;52.078;21.014;2024-03-25T05:37:01;164385.63;;;2.43;100.00
45255;BME280;30989;52.078;21.014;2024-03-25T05:39:27;164396.28;;;2.47;100.00
45255;BME280;30989;52.078;21.014;2024-03-25T05:41:52;164414.94;;;2.54;100.00
45255;BME280;30989;52.078;21.014;2024-03-25T05:44:18;164429.59;;;2.59;100.00
45255;BME280;30989;52.078;21.014;2024-03-25T05:46:43;164441.56;;;2.64;100.00
45255;BME280;30989;52.078;21.014;2024-03-25T05:49:08;164444.25;;;2.65;100.00
45255;BME280;30989;52.078;21.014;2024-03-25T05:51:34;164466.88;;;2.74;100.00
45255;BME280;30989;52.078;21.014;2024-03-25T05:53:59;164468.22;;;2.74;100.00
45255;BME280;30989;52.078;21.014;2024-03-25T05:56:25;164522.84;;;2.95;100.00
45255;BME280;30989;52.078;21.014;2024-03-25T05:58:56;164556.16;;;3.08;100.00
45255;BME280;30989;52.078;21.014;2024-03-25T06:01:22;164588.16;;;3.20;100.00
45255;BME280;30989;52.078;21.014;2024-03-25T06:03:47;164638.78;;;3.39;100.00
45255;BME280;30989;52.078;21.014;2024-03-25T06:06:13;164688.13;;;3.58;100.00
45255;BME280;30989;52.078;21.014;2024-03-25T06:08:38;164728.09;;;3.73;100.00
45255;BME280;30989;52.078;21.014;2024-03-25T06:11:04;164776.09;;;3.92;100.00
45255;BME280;30989;52.078;21.014;2024-03-25T06:13:29;164820.13;;;4.08;100.00
45255;BME280;30989;52.078;21.014;2024-03-25T06:15:55;164877.47;;;4.30;100.00
45255;BME280;30989;52.078;21.014;2024-03-25T06:18:20;164909.47;;;4.42;100.00
45255;BME280;30989;52.078;21.014;2024-03-25T06:20:46;164940.16;;;4.54;100.00
45255;BME280;30989;52.078;21.014;2024-03-25T06:23:22;164972.16;;;4.66;100.00
45255;BME280;30989;52.078;21.014;2024-03-25T06:25:48;164993.50;;;4.74;100.00
45255;BME280;30989;52.078;21.014;2024-03-25T06:28:13;165034.88;;;4.90;100.00
45255;BME280;30989;52.078;21.014;2024-03-25T06:30:39;165065.56;;;5.02;100.00
45255;BME280;30989;52.078;21.014;2024-03-25T06:33:23;165081.59;;;5.08;100.00
45255;BME280;30989;52.078;21.014;2024-03-25T06:36:07;165081.59;;;5.08;100.00
45255;BME280;30989;52.078;21.014;2024-03-25T06:38:33;165116.31;;;5.21;100.00
45255;BME280;30989;52.078;21.014;2024-03-25T06:40:58;165108.28;;;5.18;100.00
45255;BME280;30989;52.078;21.014;2024-03-25T06:43:23;165124.34;;;5.24;100.00
45255;BME280;30989;52.078;21.014;2024-03-25T06:45:49;165116.31;;;5.21;100.00
45255;BME280;30989;52.078;21.014;2024-03-25T06:48:14;165116.31;;;5.21;100.00
45255;BME280;30989;52.078;21.014;2024-03-25T06:50:40;165119.00;;;5.22;100.00
45255;BME280;30989;52.078;21.014;2024-03-25T06:53:05;165121.66;;;5.23;100.00
45255;BME280;30989;52.078;21.014;2024-03-25T06:55:31;165143.03;;;5.31;100.00
45255;BME280;30989;52.078;21.014;2024-03-25T06:57:56;165183.06;;;5.46;100.00
45255;BME280;30989;52.078;21.014;2024-03-25T07:00:21;165204.41;;;5.55;100.00
45255;BME280;30989;52.078;21.014;2024-03-25T07:02:48;165236.47;;;5.67;100.00
45255;BME280;30989;52.078;21.014;2024-03-25T07:05:13;165271.19;;;5.80;100.00
45255;BME280;30989;52.078;21.014;2024-03-25T07:07:39;165303.28;;;5.92;100.00
45255;BME280;30989;52.078;21.014;2024-03-25T07:10:04;165316.63;;;5.97;100.00
45255;BME280;30989;52.078;21.014;2024-03-25T07:12:30;165332.66;;;6.03;100.00
45255;BME280;30989;52.078;21.014;2024-03-25T07:14:56;165338.00;;;6.05;100.00
45255;BME280;30989;52.078;21.014;2024-03-25T07:17:21;165348.66;;;6.09;100.00
45255;BME280;30989;52.078;21.014;2024-03-25T07:19:47;165360.69;;;6.14;100.00
45255;BME280;30989;52.078;21.014;2024-03-25T07:22:12;165375.38;;;6.20;100.00
45255;BME280;30989;52.078;21.014;2024-03-25T07:24:38;165394.06;;;6.27;100.00
45255;BME280;30989;52.078;21.014;2024-03-25T07:27:03;165412.78;;;6.34;100.00
45255;BME280;30989;52.078;21.014;2024-03-25T07:29:29;165416.78;;;6.35;100.00
45255;BME280;30989;52.078;21.014;2024-03-25T07:31:54;165418.13;;;6.36;100.00
45255;BME280;30989;52.078;21.014;2024-03-25T07:34:20;165427.47;;;6.39;100.00
45255;BME280;30989;52.078;21.014;2024-03-25T07:36:45;165447.50;;;6.47;100.00
45255;BME280;30989;52.078;21.014;2024-03-25T07:39:11;165474.22;;;6.57;100.00
45255;BME280;30989;52.078;21.014;2024-03-25T07:41:37;165483.56;;;6.61;100.00
45255;BME280;30989;52.078;21.014;2024-03-25T07:44:02;165538.34;;;6.82;100.00
45255;BME280;30989;52.078;21.014;2024-03-25T07:46:28;165606.50;;;7.07;100.00
45255;BME280;30989;52.078;21.014;2024-03-25T07:48:53;165622.53;;;7.14;100.00
45255;BME280;30989;52.078;21.014;2024-03-25T07:51:18;165671.97;;;7.32;100.00
45255;BME280;30989;52.078;21.014;2024-03-25T07:53:44;165717.41;;;7.50;100.00
45255;BME280;30989;52.078;21.014;2024-03-25T07:56:09;165768.22;;;7.69;100.00
45255;BME280;30989;52.078;21.014;2024-03-25T07:58:35;165798.97;;;7.81;100.00
45255;BME280;30989;52.078;21.014;2024-03-25T08:01:00;165769.53;;;7.69;100.00
45255;BME280;30989;52.078;21.014;2024-03-25T08:03:25;165773.56;;;7.71;100.00
45255;BME280;30989;52.078;21.014;2024-03-25T08:05:51;165809.66;;;7.85;100.00
45255;BME280;30989;52.078;21.014;2024-03-25T08:08:16;165816.34;;;7.87;100.00
45255;BME280;30989;52.078;21.014;2024-03-25T08:10:42;165824.38;;;7.90;100.00
45255;BME280;30989;52.078;21.014;2024-03-25T08:13:07;165792.28;;;7.78;100.00
45255;BME280;30989;52.078;21.014;2024-03-25T08:15:33;165773.56;;;7.71;100.00
45255;BME280;30989;52.078;21.014;2024-03-25T08:17:58;165741.47;;;7.59;100.00
45255;BME280;30989;52.078;21.014;2024-03-25T08:20:24;165725.44;;;7.53;100.00
45255;BME280;30989;52.078;21.014;2024-03-25T08:22:49;165712.06;;;7.48;100.00
45255;BME280;30989;52.078;21.014;2024-03-25T08:25:14;165682.66;;;7.36;100.00
45255;BME280;30989;52.078;21.014;2024-03-25T08:27:40;165657.25;;;7.27;100.00
45255;BME280;30989;52.078;21.014;2024-03-25T08:30:06;165653.25;;;7.25;100.00
45255;BME280;30989;52.078;21.014;2024-03-25T08:32:31;165661.28;;;7.28;100.00
45255;BME280;30989;52.078;21.014;2024-03-25T08:34:58;165665.28;;;7.30;100.00
45255;BME280;30989;52.078;21.014;2024-03-25T08:37:23;165677.31;;;7.34;100.00
45255;BME280;30989;52.078;21.014;2024-03-25T08:39:49;165674.63;;;7.33;100.00
45255;BME280;30989;52.078;21.014;2024-03-25T08:42:14;165689.34;;;7.39;100.00
45255;BME280;30989;52.078;21.014;2024-03-25T08:44:40;165726.78;;;7.53;100.00
45255;BME280;30989;52.078;21.014;2024-03-25T08:47:05;165748.16;;;7.61;100.00
45255;BME280;30989;52.078;21.014;2024-03-25T08:49:30;165768.22;;;7.69;100.00
45255;BME280;30989;52.078;21.014;2024-03-25T08:51:56;165785.59;;;7.75;100.00
45255;BME280;30989;52.078;21.014;2024-03-25T08:54:21;165798.97;;;7.81;100.00
45255;BME280;30989;52.078;21.014;2024-03-25T08:56:47;165816.34;;;7.87;100.00
45255;BME280;30989;52.078;21.014;2024-03-25T08:59:12;165828.38;;;7.92;100.00
45255;BME280;30989;52.078;21.014;2024-03-25T09:01:38;165848.44;;;7.99;100.00
45255;BME280;30989;52.078;21.014;2024-03-25T09:04:03;165915.28;;;8.25;100.00
45255;BME280;30989;52.078;21.014;2024-03-25T09:06:29;165980.88;;;8.50;100.00
45255;BME280;30989;52.078;21.014;2024-03-25T09:08:54;166018.31;;;8.64;100.00
45255;BME280;30989;52.078;21.014;2024-03-25T09:11:38;166062.47;;;8.81;100.00
45255;BME280;30989;52.078;21.014;2024-03-25T09:14:04;166082.53;;;8.88;100.00
45255;BME280;30989;52.078;21.014;2024-03-25T09:16:31;166057.13;;;8.79;100.00
45255;BME280;30989;52.078;21.014;2024-03-25T09:18:57;166027.69;;;8.67;100.00
45255;BME280;30989;52.078;21.014;2024-03-25T09:21:22;165980.88;;;8.50;100.00
45255;BME280;30989;52.078;21.014;2024-03-25T09:23:50;165946.09;;;8.36;100.00
45255;BME280;30989;52.078;21.014;2024-03-25T09:26:15;165923.31;;;8.28;100.00
45255;BME280;30989;52.078;21.014;2024-03-25T09:28:40;165917.97;;;8.26;100.00
45255;BME280;30989;52.078;21.014;2024-03-25T09:31:06;165915.28;;;8.25;100.00
45255;BME280;30989;52.078;21.014;2024-03-25T09:33:32;165917.97;;;8.26;100.00
45255;BME280;30989;52.078;21.014;2024-03-25T09:35:59;165923.31;;;8.28;100.00
45255;BME280;30989;52.078;21.014;2024-03-25T09:38:25;165964.81;;;8.44;100.00
45255;BME280;30989;52.078;21.014;2024-03-25T09:40:52;165995.59;;;8.55;100.00
45255;BME280;30989;52.078;21.014;2024-03-25T09:43:47;166012.97;;;8.62;100.00
45255;BME280;30989;52.078;21.014;2024-03-25T09:46:15;166011.63;;;8.61;98.07
45255;BME280;30989;52.078;21.014;2024-03-25T09:48:42;166006.28;;;8.59;100.00
45255;BME280;30989;52.078;21.014;2024-03-25T09:51:09;166051.78;;;8.77;100.00
45255;BME280;30989;52.078;21.014;2024-03-25T09:53:34;166097.25;;;8.94;100.00
45255;BME280;30989;52.078;21.014;2024-03-25T09:56:00;166110.63;;;8.99;100.00
45255;BME280;30989;52.078;21.014;2024-03-25T09:58:26;166113.31;;;9.00;93.73
45255;BME280;30989;52.078;21.014;2024-03-25T10:00:52;166090.56;;;8.91;93.98
45255;BME280;30989;52.078;21.014;2024-03-25T10:03:18;166057.13;;;8.79;94.04
45255;BME280;30989;52.078;21.014;2024-03-25T10:05:44;166059.78;;;8.80;95.64
45255;BME280;30989;52.078;21.014;2024-03-25T10:08:09;166065.16;;;8.82;94.50
45255;BME280;30989;52.078;21.014;2024-03-25T10:10:35;166062.47;;;8.81;89.91
45255;BME280;30989;52.078;21.014;2024-03-25T10:13:03;166065.16;;;8.82;87.56
45255;BME280;30989;52.078;21.014;2024-03-25T10:15:32;166029.03;;;8.68;86.59
45255;BME280;30989;52.078;21.014;2024-03-25T10:17:58;166011.63;;;8.61;88.59
45255;BME280;30989;52.078;21.014;2024-03-25T10:20:24;165996.94;;;8.56;89.21
45255;BME280;30989;52.078;21.014;2024-03-25T10:22:51;166035.72;;;8.70;91.44
45255;BME280;30989;52.078;21.014;2024-03-25T10:25:26;166063.81;;;8.81;91.14
45255;BME280;30989;52.078;21.014;2024-03-25T10:28:01;166150.78;;;9.14;91.35
45255;BME280;30989;52.078;21.014;2024-03-25T10:30:28;166259.19;;;9.55;91.68
45255;BME280;30989;52.078;21.014;2024-03-25T10:33:01;166351.53;;;9.90;89.66
45255;BME280;30989;52.078;21.014;2024-03-25T10:35:27;166410.44;;;10.13;91.48
45255;BME280;30989;52.078;21.014;2024-03-25T10:38:01;166446.66;;;10.26;84.52
45255;BME280;30989;52.078;21.014;2024-03-25T10:40:29;166415.81;;;10.15;85.57
45255;BME280;30989;52.078;21.014;2024-03-25T10:43:10;166397.06;;;10.08;87.23
45255;BME280;30989;52.078;21.014;2024-03-25T10:45:47;166358.22;;;9.93;84.58
45255;BME280;30989;52.078;21.014;2024-03-25T10:48:19;166327.44;;;9.81;85.58
45255;BME280;30989;52.078;21.014;2024-03-25T10:50:46;166303.34;;;9.72;86.40
45255;BME280;30989;52.078;21.014;2024-03-25T10:53:12;166257.84;;;9.55;86.07
45255;BME280;30989;52.078;21.014;2024-03-25T10:55:39;166253.81;;;9.53;88.86
45255;BME280;30989;52.078;21.014;2024-03-25T10:58:07;166263.19;;;9.57;85.14
45255;BME280;30989;52.078;21.014;2024-03-25T11:00:34;166249.81;;;9.52;85.43
45255;BME280;30989;52.078;21.014;2024-03-25T11:03:00;166243.13;;;9.49;84.75
45255;BME280;30989;52.078;21.014;2024-03-25T11:05:27;166268.53;;;9.59;85.19
45255;BME280;30989;52.078;21.014;2024-03-25T11:07:52;166289.97;;;9.67;82.89
45255;BME280;30989;52.078;21.014;2024-03-25T11:10:18;166315.41;;;9.77;84.39
45255;BME280;30989;52.078;21.014;2024-03-25T11:12:43;166367.59;;;9.96;86.88
45255;BME280;30989;52.078;21.014;2024-03-25T11:15:10;166484.19;;;10.41;81.70
45255;BME280;30989;52.078;21.014;2024-03-25T11:17:36;166602.06;;;10.85;79.21
45255;BME280;30989;52.078;21.014;2024-03-25T11:20:17;166815.13;;;11.66;74.28
45255;BME280;30989;52.078;21.014;2024-03-25T11:22:50;167000.16;;;12.36;70.59
45255;BME280;30989;52.078;21.014;2024-03-25T11:25:17;167142.31;;;12.90;70.83
45255;BME280;30989;52.078;21.014;2024-03-25T11:27:44;167268.47;;;13.38;67.76
45255;BME280;30989;52.078;21.014;2024-03-25T11:30:11;167304.69;;;13.51;68.48
45255;BME280;30989;52.078;21.014;2024-03-25T11:35:12;167189.25;;;13.08;70.33
45255;BME280;30989;52.078;21.014;2024-03-25T11:37:43;167051.09;;;12.55;67.64
45255;BME280;30989;52.078;21.014;2024-03-25T11:40:09;166918.38;;;12.05;72.95
45255;BME280;30989;52.078;21.014;2024-03-25T11:42:41;166963.97;;;12.22;76.53
45255;BME280;30989;52.078;21.014;2024-03-25T11:45:14;167233.56;;;13.25;70.49
45255;BME280;30989;52.078;21.014;2024-03-25T11:47:43;167507.34;;;14.28;72.23
45255;BME280;30989;52.078;21.014;2024-03-25T11:50:13;167722.22;;;15.09;66.66
45255;BME280;30989;52.078;21.014;2024-03-25T11:52:39;167945.31;;;15.94;68.08
45255;BME280;30989;52.078;21.014;2024-03-25T11:55:05;167946.66;;;15.94;62.14
45255;BME280;30989;52.078;21.014;2024-03-25T11:57:31;167731.63;;;15.13;61.85
45255;BME280;30989;52.078;21.014;2024-03-25T11:59:58;167553.03;;;14.45;64.84
45255;BME280;30989;52.078;21.014;2024-03-25T12:02:25;167374.47;;;13.78;65.35
45255;BME280;30989;52.078;21.014;2024-03-25T12:04:50;167205.34;;;13.14;69.19
45255;BME280;30989;52.078;21.014;2024-03-25T12:07:16;167130.25;;;12.85;70.05
45255;BME280;30989;52.078;21.014;2024-03-25T12:09:42;167060.50;;;12.59;68.57
45255;BME280;30989;52.078;21.014;2024-03-25T12:12:26;166989.44;;;12.32;69.49
45255;BME280;30989;52.078;21.014;2024-03-25T12:14:53;167063.19;;;12.60;71.93
45255;BME280;30989;52.078;21.014;2024-03-25T12:17:21;167114.16;;;12.79;70.46
45255;BME280;30989;52.078;21.014;2024-03-25T12:20:02;167032.34;;;12.48;69.10
45255;BME280;30989;52.078;21.014;2024-03-25T12:22:30;166953.22;;;12.18;70.69
45255;BME280;30989;52.078;21.014;2024-03-25T12:24:59;166867.44;;;11.86;71.46
45255;BME280;30989;52.078;21.014;2024-03-25T12:27:25;166827.19;;;11.71;71.35
45255;BME280;30989;52.078;21.014;2024-03-25T12:30:06;166753.47;;;11.43;71.07
45255;BME280;30989;52.078;21.014;2024-03-25T12:35:01;166584.66;;;10.79;73.55
45255;BME280;30989;52.078;21.014;2024-03-25T12:37:27;166555.19;;;10.68;76.07
45255;BME280;30989;52.078;21.014;2024-03-25T12:39:53;166539.13;;;10.61;76.81
45255;BME280;30989;52.078;21.014;2024-03-25T12:42:21;166596.72;;;10.83;77.60